createdAt,value
2022-11-08T00:01:32.113Z,99624.28
2022-11-08T00:04:02.265Z,99636.22
2022-11-08T00:06:47.792Z,99632.22
2022-11-08T00:09:33.410Z,99623.47
2022-11-08T00:12:18.864Z,99622.59
2022-11-08T00:14:47.310Z,99616.00
2022-11-08T00:17:15.536Z,99611.22
2022-11-08T00:19:45.505Z,99613.81
2022-11-08T00:22:14.161Z,99609.91
2022-11-08T00:24:42.649Z,99611.19
2022-11-08T00:27:12.601Z,99607.66
2022-11-08T00:29:40.233Z,99613.91
2022-11-08T00:32:12.025Z,99606.00
2022-11-08T00:34:39.864Z,99610.25
2022-11-08T00:37:09.097Z,99599.69
2022-11-08T00:39:36.860Z,99599.69
2022-11-08T00:42:04.633Z,99601.34
2022-11-08T00:44:32.309Z,99604.66
2022-11-08T00:46:59.911Z,99604.81
2022-11-08T00:49:27.587Z,99595.09
2022-11-08T00:51:55.142Z,99599.00
2022-11-08T00:54:24.288Z,99590.09
2022-11-08T00:56:51.885Z,99595.00
2022-11-08T00:59:20.696Z,99594.50
2022-11-08T01:01:49.354Z,99601.75
2022-11-08T01:04:19.517Z,99590.91
2022-11-08T01:06:47.356Z,99588.75
2022-11-08T01:09:16.412Z,99586.44
2022-11-08T01:11:47.669Z,99589.44
2022-11-08T01:14:16.182Z,99590.41
2022-11-08T01:16:45.188Z,99583.97
2022-11-08T01:19:12.955Z,99586.44
2022-11-08T01:21:40.513Z,99582.31
2022-11-08T01:24:08.627Z,99572.72
2022-11-08T01:26:36.228Z,99576.84
2022-11-08T01:29:05.153Z,99574.53
2022-11-08T01:31:33.844Z,99570.53
2022-11-08T01:34:02.003Z,99568.19
2022-11-08T01:36:30.537Z,99558.97
2022-11-08T01:38:58.338Z,99569.69
2022-11-08T01:41:28.207Z,99558.00
2022-11-08T01:43:57.143Z,99565.41
2022-11-08T01:46:36.155Z,99559.31
2022-11-08T01:49:32.850Z,99552.50
2022-11-08T01:52:11.081Z,99555.78
2022-11-08T01:54:45.156Z,99555.44
2022-11-08T01:57:17.473Z,99557.56
2022-11-08T01:59:48.845Z,99543.78
2022-11-08T02:02:19.553Z,99551.19
2022-11-08T02:04:48.331Z,99547.44
2022-11-08T02:07:18.113Z,99544.81
2022-11-08T02:09:48.070Z,99545.78
2022-11-08T02:12:17.939Z,99535.53
2022-11-08T02:14:45.573Z,99538.81
2022-11-08T02:17:14.405Z,99531.72
2022-11-08T02:19:47.491Z,99536.50
2022-11-08T02:22:22.191Z,99528.63
2022-11-08T02:24:51.212Z,99532.75
2022-11-08T02:27:18.953Z,99532.56
2022-11-08T02:29:46.827Z,99536.31
2022-11-08T02:32:14.399Z,99528.06
2022-11-08T02:34:45.119Z,99527.66
2022-11-08T02:37:15.404Z,99523.50
2022-11-08T02:39:43.503Z,99528.75
2022-11-08T02:42:16.554Z,99522.97
2022-11-08T02:44:44.219Z,99524.44
2022-11-08T02:47:11.928Z,99514.91
2022-11-08T02:49:39.616Z,99523.50
2022-11-08T02:52:07.673Z,99518.53
2022-11-08T02:54:35.686Z,99522.16
2022-11-08T02:57:03.243Z,99521.84
2022-11-08T02:59:32.141Z,99511.28
2022-11-08T03:01:59.929Z,99502.06
2022-11-08T03:04:27.637Z,99505.31
2022-11-08T03:06:56.196Z,99507.13
2022-11-08T03:09:24.028Z,99501.50
2022-11-08T03:11:51.569Z,99509.66
2022-11-08T03:14:19.185Z,99503.13
2022-11-08T03:16:48.069Z,99510.28
2022-11-08T03:19:15.837Z,99498.13
2022-11-08T03:21:43.385Z,99507.97
2022-11-08T03:24:12.289Z,99506.91
2022-11-08T03:26:39.923Z,99499.34
2022-11-08T03:29:07.621Z,99495.72
2022-11-08T03:31:35.185Z,99495.88
2022-11-08T03:34:04.083Z,99486.47
2022-11-08T03:36:31.811Z,99480.53
2022-11-08T03:38:59.355Z,99475.66
2022-11-08T03:41:26.940Z,99480.84
2022-11-08T03:43:54.556Z,99482.16
2022-11-08T03:46:22.193Z,99479.81
2022-11-08T03:48:49.765Z,99483.84
2022-11-08T03:51:18.956Z,99482.19
2022-11-08T03:53:46.583Z,99489.66
2022-11-08T03:56:14.162Z,99482.50
2022-11-08T03:58:41.705Z,99484.09
2022-11-08T04:01:09.475Z,99485.22
2022-11-08T04:03:37.079Z,99473.50
2022-11-08T04:06:04.985Z,99476.44
2022-11-08T04:08:33.900Z,99477.78
2022-11-08T04:11:22.374Z,99476.06
2022-11-08T04:14:04.142Z,99467.88
2022-11-08T04:16:32.579Z,99468.22
2022-11-08T04:19:18.317Z,99464.78
2022-11-08T04:21:47.558Z,99463.28
2022-11-08T04:24:17.677Z,99460.66
2022-11-08T04:26:46.453Z,99455.84
2022-11-08T04:29:14.253Z,99459.53
2022-11-08T04:31:43.257Z,99458.88
2022-11-08T04:34:10.985Z,99465.09
2022-11-08T04:36:39.588Z,99455.00
2022-11-08T04:39:07.300Z,99448.88
2022-11-08T04:41:36.281Z,99445.31
2022-11-08T04:44:03.962Z,99454.88
2022-11-08T04:46:31.716Z,99449.59
2022-11-08T04:49:00.785Z,99445.78
2022-11-08T04:51:31.147Z,99443.38
2022-11-08T04:54:00.605Z,99443.00
2022-11-08T04:56:30.282Z,99435.72
2022-11-08T04:59:01.668Z,99433.97
2022-11-08T05:01:32.503Z,99423.84
2022-11-08T05:04:00.144Z,99419.28
2022-11-08T05:06:29.568Z,99417.84
2022-11-08T05:08:58.716Z,99417.91
2022-11-08T05:11:28.541Z,99411.81
2022-11-08T05:13:56.636Z,99417.06
2022-11-08T05:16:27.576Z,99415.38
2022-11-08T05:18:55.540Z,99415.22
2022-11-08T05:21:42.090Z,99414.47
2022-11-08T05:24:12.525Z,99414.25
2022-11-08T05:26:43.093Z,99406.50
2022-11-08T05:29:11.739Z,99406.56
2022-11-08T05:31:41.054Z,99411.84
2022-11-08T05:34:08.609Z,99411.47
2022-11-08T05:36:36.285Z,99411.63
2022-11-08T05:39:04.600Z,99404.84
2022-11-08T05:41:32.149Z,99404.09
2022-11-08T05:43:59.733Z,99396.16
2022-11-08T05:46:27.427Z,99400.25
2022-11-08T05:48:56.484Z,99397.13
2022-11-08T05:51:24.069Z,99405.25
2022-11-08T05:53:51.690Z,99390.72
2022-11-08T05:56:19.669Z,99382.84
2022-11-08T05:58:47.509Z,99383.69
2022-11-08T06:01:17.637Z,99379.09
2022-11-08T06:03:45.960Z,99388.88
2022-11-08T06:06:16.870Z,99389.59
2022-11-08T06:08:48.980Z,99388.53
2022-11-08T06:11:21.312Z,99393.69
2022-11-08T06:13:49.398Z,99400.19
2022-11-08T06:16:18.810Z,99407.47
2022-11-08T06:18:47.297Z,99405.06
2022-11-08T06:21:18.992Z,99401.63
2022-11-08T06:23:59.250Z,99405.69
2022-11-08T06:26:26.845Z,99413.34
2022-11-08T06:28:54.401Z,99413.69
2022-11-08T06:31:22.211Z,99412.34
2022-11-08T06:33:50.259Z,99404.94
2022-11-08T06:36:21.062Z,99411.53
2022-11-08T06:38:48.803Z,99408.19
2022-11-08T06:41:20.360Z,99413.44
2022-11-08T06:43:48.261Z,99413.91
2022-11-08T06:46:16.665Z,99409.34
2022-11-08T06:48:44.277Z,99414.75
2022-11-08T06:51:12.063Z,99415.25
2022-11-08T06:53:41.077Z,99408.75
2022-11-08T06:56:09.225Z,99404.66
2022-11-08T06:58:37.362Z,99409.34
2022-11-08T07:01:06.092Z,99413.03
2022-11-08T07:03:34.277Z,99405.63
2022-11-08T07:06:02.822Z,99407.84
2022-11-08T07:08:30.492Z,99404.28
2022-11-08T07:10:59.580Z,99404.16
2022-11-08T07:13:27.287Z,99405.50
2022-11-08T07:15:58.813Z,99407.84
2022-11-08T07:18:26.911Z,99411.38
2022-11-08T07:20:54.564Z,99402.72
2022-11-08T07:23:23.756Z,99408.81
2022-11-08T07:25:51.551Z,99414.69
2022-11-08T07:28:21.385Z,99405.25
2022-11-08T07:30:50.001Z,99404.13
2022-11-08T07:33:18.437Z,99405.59
2022-11-08T07:35:48.057Z,99413.50
2022-11-08T07:38:15.846Z,99419.25
2022-11-08T07:40:44.748Z,99420.09
2022-11-08T07:43:13.240Z,99417.84
2022-11-08T07:45:43.105Z,99418.28
2022-11-08T07:48:13.431Z,99420.56
2022-11-08T07:50:41.869Z,99431.94
2022-11-08T07:53:10.202Z,99427.84
2022-11-08T07:55:38.462Z,99435.09
2022-11-08T07:58:06.503Z,99429.84
2022-11-08T08:00:37.113Z,99432.13
2022-11-08T08:03:07.984Z,99434.00
2022-11-08T08:05:37.672Z,99433.81
2022-11-08T08:08:06.217Z,99434.84
2022-11-08T08:10:35.284Z,99433.72
2022-11-08T08:13:03.029Z,99435.88
2022-11-08T08:15:30.985Z,99441.63
2022-11-08T08:18:00.892Z,99437.81
2022-11-08T08:20:30.633Z,99446.41
2022-11-08T08:22:58.545Z,99454.16
2022-11-08T08:25:28.434Z,99449.53
2022-11-08T08:27:57.698Z,99445.91
2022-11-08T08:30:25.962Z,99441.19
2022-11-08T08:33:26.206Z,99454.03
2022-11-08T08:35:50.480Z,99449.22
2022-11-08T08:38:18.144Z,99438.19
2022-11-08T08:40:45.763Z,99452.06
2022-11-08T08:43:13.413Z,99450.25
2022-11-08T08:45:41.866Z,99453.06
2022-11-08T08:48:09.535Z,99454.50
2022-11-08T08:50:37.530Z,99460.47
2022-11-08T08:53:07.324Z,99460.41
2022-11-08T08:55:36.371Z,99455.34
2022-11-08T08:58:04.634Z,99458.78
2022-11-08T09:03:20.468Z,99460.13
2022-11-08T09:05:48.613Z,99455.34
2022-11-08T09:08:18.547Z,99458.50
2022-11-08T09:10:47.259Z,99446.94
2022-11-08T09:13:14.986Z,99454.38
2022-11-08T09:15:42.764Z,99456.19
2022-11-08T09:18:10.843Z,99442.50
2022-11-08T09:20:39.336Z,99455.44
2022-11-08T09:23:06.881Z,99447.66
2022-11-08T09:25:35.953Z,99442.16
2022-11-08T09:28:03.686Z,99429.47
2022-11-08T09:30:31.558Z,99438.34
2022-11-08T09:33:01.330Z,99437.34
2022-11-08T09:35:30.626Z,99432.69
2022-11-08T09:37:58.837Z,99434.44
2022-11-08T09:40:32.464Z,99430.50
2022-11-08T09:43:15.028Z,99430.88
2022-11-08T09:45:46.398Z,99434.50
2022-11-08T09:48:23.486Z,99433.88
2022-11-08T09:50:54.591Z,99432.97
2022-11-08T09:53:34.714Z,99421.19
2022-11-08T09:56:08.081Z,99422.16
2022-11-08T09:58:41.261Z,99424.28
2022-11-08T10:01:11.112Z,99422.75
2022-11-08T10:03:39.015Z,99422.31
2022-11-08T10:06:23.394Z,99413.19
2022-11-08T10:09:01.233Z,99415.22
2022-11-08T10:11:40.846Z,99410.81
2022-11-08T10:14:33.985Z,99397.25
2022-11-08T10:17:22.314Z,99400.53
2022-11-08T10:20:06.728Z,99406.31
2022-11-08T10:22:46.981Z,99407.88
2022-11-08T10:25:21.043Z,99400.09
2022-11-08T10:27:48.600Z,99394.41
2022-11-08T10:30:21.423Z,99396.69
2022-11-08T10:32:53.146Z,99399.69
2022-11-08T10:35:26.516Z,99398.66
2022-11-08T10:37:56.673Z,99391.97
2022-11-08T10:40:37.668Z,99395.81
2022-11-08T10:43:11.258Z,99394.50
2022-11-08T10:45:41.024Z,99396.84
2022-11-08T10:48:11.719Z,99393.91
2022-11-08T10:50:44.995Z,99397.69
2022-11-08T10:53:19.104Z,99388.66
2022-11-08T10:55:52.648Z,99391.00
2022-11-08T10:58:30.438Z,99391.25
2022-11-08T11:01:06.052Z,99372.53
2022-11-08T11:03:34.033Z,99380.25
2022-11-08T11:06:04.274Z,99376.56
2022-11-08T11:08:32.673Z,99372.97
2022-11-08T11:11:23.407Z,99364.50
2022-11-08T11:14:09.958Z,99357.97
2022-11-08T11:16:53.734Z,99361.13
2022-11-08T11:19:21.612Z,99367.69
2022-11-08T11:21:55.534Z,99377.03
2022-11-08T11:24:23.455Z,99368.72
2022-11-08T11:27:02.008Z,99356.09
2022-11-08T11:29:31.380Z,99356.31
2022-11-08T11:32:24.313Z,99354.72
2022-11-08T11:34:55.846Z,99354.97
2022-11-08T11:37:30.287Z,99352.44
2022-11-08T11:40:20.511Z,99359.50
2022-11-08T11:42:57.638Z,99353.44
2022-11-08T11:45:31.494Z,99361.41
2022-11-08T11:48:06.781Z,99356.06
2022-11-08T11:50:36.074Z,99346.72
2022-11-08T11:53:06.460Z,99340.69
2022-11-08T11:55:52.456Z,99344.63
2022-11-08T11:58:34.344Z,99333.47
2022-11-08T12:01:14.676Z,99330.56
2022-11-08T12:04:14.817Z,99328.78
2022-11-08T12:06:50.398Z,99320.97
2022-11-08T12:09:34.648Z,99333.50
2022-11-08T12:12:16.902Z,99320.06
2022-11-08T12:14:56.792Z,99314.59
2022-11-08T12:17:59.078Z,99307.63
2022-11-08T12:20:41.250Z,99296.09
2022-11-08T12:23:27.418Z,99292.09
2022-11-08T12:26:03.209Z,99300.41
2022-11-08T12:28:47.077Z,99294.91
2022-11-08T12:31:26.276Z,99299.13
2022-11-08T12:34:07.828Z,99299.75
2022-11-08T12:36:48.286Z,99291.25
2022-11-08T12:39:26.291Z,99299.28
2022-11-08T12:42:08.965Z,99305.94
2022-11-08T12:44:51.269Z,99295.59
2022-11-08T12:47:29.244Z,99290.69
2022-11-08T12:50:11.360Z,99300.63
2022-11-08T12:52:54.128Z,99281.84
2022-11-08T12:55:26.683Z,99272.00
2022-11-08T12:57:57.122Z,99269.75
2022-11-08T13:00:25.049Z,99275.59
2022-11-08T13:03:05.374Z,99272.84
2022-11-08T13:05:38.042Z,99265.16
2022-11-08T13:08:14.161Z,99268.06
2022-11-08T13:10:54.205Z,99259.22
2022-11-08T13:13:32.599Z,99270.19
2022-11-08T13:16:14.340Z,99268.75
2022-11-08T13:18:47.095Z,99262.78
2022-11-08T13:21:38.997Z,99260.66
2022-11-08T13:24:44.363Z,99257.84
2022-11-08T13:27:31.244Z,99268.53
2022-11-08T13:30:05.495Z,99274.03
2022-11-08T13:32:53.625Z,99280.19
2022-11-08T13:35:26.725Z,99269.94
2022-11-08T13:38:04.625Z,99266.59
2022-11-08T13:40:45.340Z,99269.47
2022-11-08T13:43:32.116Z,99265.41
2022-11-08T13:46:50.010Z,99263.50
2022-11-08T13:49:20.048Z,99262.66
2022-11-08T13:51:47.888Z,99259.38
2022-11-08T13:54:55.195Z,99263.53
2022-11-08T13:57:57.772Z,99264.03
2022-11-08T14:00:44.260Z,99265.13
2022-11-08T14:03:50.331Z,99257.34
2022-11-08T14:06:27.713Z,99262.06
2022-11-08T14:09:04.123Z,99260.19
2022-11-08T14:11:43.052Z,99243.72
2022-11-08T14:14:30.970Z,99255.63
2022-11-08T14:17:10.132Z,99250.34
2022-11-08T14:19:39.887Z,99249.09
2022-11-08T14:22:16.596Z,99252.66
2022-11-08T14:24:44.899Z,99249.06
2022-11-08T14:27:14.704Z,99250.91
2022-11-08T14:29:43.408Z,99250.94
2022-11-08T14:32:19.170Z,99252.00
2022-11-08T14:34:47.843Z,99254.06
2022-11-08T14:37:22.706Z,99258.53
2022-11-08T14:39:51.581Z,99251.19
2022-11-08T14:42:23.241Z,99250.53
2022-11-08T14:44:54.759Z,99246.16
2022-11-08T14:47:28.565Z,99244.66
2022-11-08T14:49:56.102Z,99240.31
2022-11-08T14:52:29.371Z,99240.31
2022-11-08T14:55:04.991Z,99243.25
2022-11-08T14:57:35.422Z,99241.09
2022-11-08T15:00:07.314Z,99242.06
2022-11-08T15:02:35.068Z,99242.13
2022-11-08T15:05:02.731Z,99247.63
2022-11-08T15:07:31.638Z,99248.69
2022-11-08T15:10:09.404Z,99251.97
2022-11-08T15:12:42.899Z,99247.22
2022-11-08T15:15:22.027Z,99249.03
2022-11-08T15:18:09.997Z,99237.94
2022-11-08T15:20:38.398Z,99244.34
2022-11-08T15:23:24.870Z,99238.03
2022-11-08T15:25:57.345Z,99242.88
2022-11-08T15:28:26.758Z,99243.41
2022-11-08T15:30:58.994Z,99246.53
2022-11-08T15:33:30.299Z,99245.97
2022-11-08T15:36:00.199Z,99244.63
2022-11-08T15:38:35.065Z,99246.31
2022-11-08T15:41:05.526Z,99238.19
2022-11-08T15:43:42.461Z,99236.78
2022-11-08T15:46:29.180Z,99239.25
2022-11-08T15:48:58.519Z,99236.56
2022-11-08T15:51:26.180Z,99229.25
2022-11-08T15:53:55.109Z,99232.50
2022-11-08T15:56:22.846Z,99239.91
2022-11-08T15:58:50.548Z,99224.94
2022-11-08T16:01:20.400Z,99236.59
2022-11-08T16:03:48.508Z,99228.22
2022-11-08T16:06:16.233Z,99229.69
2022-11-08T16:08:43.809Z,99236.03
2022-11-08T16:11:19.440Z,99235.84
2022-11-08T16:13:48.984Z,99234.41
2022-11-08T16:16:18.194Z,99235.81
2022-11-08T16:18:46.005Z,99235.19
2022-11-08T16:21:14.520Z,99239.47
2022-11-08T16:23:42.946Z,99229.66
2022-11-08T16:26:16.962Z,99223.94
2022-11-08T16:28:45.274Z,99230.06
2022-11-08T16:31:15.071Z,99225.16
2022-11-08T16:33:44.339Z,99229.66
2022-11-08T16:36:18.841Z,99223.13
2022-11-08T16:38:51.289Z,99220.88
2022-11-08T16:41:21.114Z,99228.44
2022-11-08T16:43:49.018Z,99225.78
2022-11-08T16:46:17.561Z,99231.31
2022-11-08T16:48:47.336Z,99229.66
2022-11-08T16:51:18.689Z,99238.88
2022-11-08T16:53:46.436Z,99237.88
2022-11-08T16:56:14.264Z,99234.00
2022-11-08T16:58:43.778Z,99234.59
2022-11-08T17:01:15.855Z,99231.91
2022-11-08T17:03:43.658Z,99244.81
2022-11-08T17:06:17.932Z,99242.72
2022-11-08T17:08:45.709Z,99242.34
2022-11-08T17:11:17.818Z,99239.28
2022-11-08T17:13:46.771Z,99248.69
2022-11-08T17:16:15.461Z,99250.13
2022-11-08T17:18:43.160Z,99249.75
2022-11-08T17:24:01.109Z,99248.00
2022-11-08T17:26:28.643Z,99243.75
2022-11-08T17:28:58.657Z,99242.44
2022-11-08T17:31:26.251Z,99243.44
2022-11-08T17:33:54.891Z,99240.13
2022-11-08T17:36:22.565Z,99240.94
2022-11-08T17:38:50.184Z,99256.22
2022-11-08T17:41:17.848Z,99254.50
2022-11-08T17:43:45.576Z,99240.78
2022-11-08T17:46:15.539Z,99249.69
2022-11-08T17:48:43.134Z,99262.88
2022-11-08T17:51:11.965Z,99265.59
2022-11-08T17:53:39.604Z,99257.41
2022-11-08T17:56:07.959Z,99266.19
2022-11-08T17:58:35.697Z,99264.72
2022-11-08T18:01:07.915Z,99265.28
2022-11-08T18:03:37.190Z,99269.00
2022-11-08T18:06:06.937Z,99273.25
2022-11-08T18:08:35.807Z,99275.28
2022-11-08T18:11:04.012Z,99275.06
2022-11-08T18:13:32.538Z,99273.38
2022-11-08T18:16:07.054Z,99272.34
2022-11-08T18:18:35.781Z,99272.75
2022-11-08T18:21:05.319Z,99263.75
2022-11-08T18:23:32.902Z,99262.75
2022-11-08T18:26:00.598Z,99266.31
2022-11-08T18:28:28.524Z,99261.59
2022-11-08T18:30:56.097Z,99252.59
2022-11-08T18:33:23.778Z,99261.19
2022-11-08T18:35:51.334Z,99250.31
2022-11-08T18:38:21.281Z,99258.31
2022-11-08T18:40:51.107Z,99248.13
2022-11-08T18:43:19.959Z,99253.66
2022-11-08T18:45:47.760Z,99251.88
2022-11-08T18:48:15.330Z,99257.22
2022-11-08T18:50:43.065Z,99252.94
2022-11-08T18:53:10.787Z,99241.66
2022-11-08T18:55:39.844Z,99243.72
2022-11-08T18:58:08.287Z,99243.97
2022-11-08T19:00:36.069Z,99238.19
2022-11-08T19:03:03.783Z,99246.28
2022-11-08T19:05:31.545Z,99246.53
2022-11-08T19:07:59.291Z,99238.06
2022-11-08T19:10:26.969Z,99241.19
2022-11-08T19:12:56.033Z,99247.13
2022-11-08T19:15:27.359Z,99251.72
2022-11-08T19:17:55.084Z,99251.94
2022-11-08T19:20:23.927Z,99248.84
2022-11-08T19:22:54.722Z,99255.63
2022-11-08T19:25:22.449Z,99252.06
2022-11-08T19:27:50.112Z,99251.91
2022-11-08T19:30:19.580Z,99250.28
2022-11-08T19:32:47.431Z,99239.63
2022-11-08T19:35:15.064Z,99235.69
2022-11-08T19:37:42.814Z,99240.81
2022-11-08T19:40:11.668Z,99230.59
2022-11-08T19:42:39.566Z,99234.22
2022-11-08T19:45:08.730Z,99240.81
2022-11-08T19:47:37.748Z,99236.28
2022-11-08T19:50:06.212Z,99236.28
2022-11-08T19:52:33.870Z,99233.22
2022-11-08T19:55:01.655Z,99233.47
2022-11-08T19:57:29.964Z,99239.63
2022-11-08T19:59:57.647Z,99241.25
2022-11-08T20:02:25.397Z,99233.22
2022-11-08T20:04:54.502Z,99238.41
2022-11-08T20:07:22.264Z,99239.88
2022-11-08T20:09:50.060Z,99247.28
2022-11-08T20:12:17.828Z,99247.53
2022-11-08T20:14:45.579Z,99247.66
2022-11-08T20:17:13.316Z,99247.66
2022-11-08T20:19:41.191Z,99247.00
2022-11-08T20:22:10.402Z,99236.19
2022-11-08T20:24:38.094Z,99232.69
2022-11-08T20:27:05.888Z,99235.41
2022-11-08T20:29:33.806Z,99239.69
2022-11-08T20:32:02.397Z,99247.19
2022-11-08T20:34:30.011Z,99252.53
2022-11-08T20:36:57.857Z,99255.41
2022-11-08T20:39:26.787Z,99262.03
2022-11-08T20:41:54.444Z,99270.84
2022-11-08T20:44:23.990Z,99280.28
2022-11-08T20:46:52.078Z,99264.13
2022-11-08T20:49:20.257Z,99264.69
2022-11-08T20:51:48.858Z,99271.22
2022-11-08T20:54:16.958Z,99273.28
2022-11-08T20:56:45.914Z,99270.25
2022-11-08T20:59:15.060Z,99259.81
2022-11-08T21:01:42.697Z,99267.63
2022-11-08T21:04:10.354Z,99271.94
2022-11-08T21:06:38.147Z,99273.00
2022-11-08T21:09:32.421Z,99271.81
2022-11-08T21:11:55.897Z,99274.94
2022-11-08T21:14:24.696Z,99284.03
2022-11-08T21:17:20.289Z,99279.19
2022-11-08T21:19:40.066Z,99266.31
2022-11-08T21:22:16.853Z,99269.66
2022-11-08T21:24:46.032Z,99264.94
2022-11-08T21:27:15.397Z,99263.09
2022-11-08T21:29:43.317Z,99263.53
2022-11-08T21:32:10.910Z,99258.22
2022-11-08T21:34:39.581Z,99247.78
2022-11-08T21:37:09.869Z,99253.25
2022-11-08T21:39:37.424Z,99244.66
2022-11-08T21:42:04.982Z,99251.38
2022-11-08T21:44:33.880Z,99259.81
2022-11-08T21:47:01.434Z,99249.16
2022-11-08T21:49:29.025Z,99242.44
2022-11-08T21:51:56.619Z,99253.72
2022-11-08T21:54:24.172Z,99256.19
2022-11-08T21:56:51.734Z,99268.09
2022-11-08T21:59:19.320Z,99274.72
2022-11-08T22:01:48.258Z,99275.56
2022-11-08T22:04:15.826Z,99275.13
2022-11-08T22:06:47.478Z,99278.41
2022-11-08T22:09:15.718Z,99282.91
2022-11-08T22:11:43.332Z,99291.09
2022-11-08T22:14:10.935Z,99285.59
2022-11-08T22:16:38.646Z,99290.69
2022-11-08T22:19:08.258Z,99288.03
2022-11-08T22:21:39.817Z,99287.41
2022-11-08T22:24:09.436Z,99280.47
2022-11-08T22:26:37.167Z,99279.84
2022-11-08T22:29:05.145Z,99278.44
2022-11-08T22:31:33.295Z,99290.88
2022-11-08T22:34:01.203Z,99280.28
2022-11-08T22:36:30.153Z,99278.41
2022-11-08T22:38:58.098Z,99276.38
2022-11-08T22:41:25.782Z,99275.16
2022-11-08T22:43:53.418Z,99267.75
2022-11-08T22:46:21.285Z,99263.25
2022-11-08T22:48:49.304Z,99263.88
2022-11-08T22:51:17.198Z,99253.84
2022-11-08T22:53:46.159Z,99253.84
2022-11-08T22:56:13.963Z,99267.38
2022-11-08T22:58:41.592Z,99251.78
2022-11-08T23:01:11.968Z,99257.34
2022-11-08T23:03:39.640Z,99253.44
2022-11-08T23:06:07.302Z,99252.41
2022-11-08T23:08:34.929Z,99267.78
2022-11-08T23:11:21.743Z,99265.69
2022-11-08T23:14:07.052Z,99262.84
2022-11-08T23:16:37.373Z,99264.28
2022-11-08T23:19:24.187Z,99248.50
2022-11-08T23:22:09.637Z,99246.84
2022-11-08T23:24:38.635Z,99238.47
2022-11-08T23:27:25.412Z,99254.03
2022-11-08T23:30:10.613Z,99250.53
2022-11-08T23:32:43.004Z,99250.91
2022-11-08T23:35:10.788Z,99260.53
2022-11-08T23:37:38.379Z,99269.75
2022-11-08T23:40:25.329Z,99272.19
2022-11-08T23:43:22.683Z,99266.41
2022-11-08T23:45:50.551Z,99277.47
2022-11-08T23:48:18.253Z,99287.78
2022-11-08T23:50:53.144Z,99293.47
2022-11-08T23:53:22.122Z,99313.44
2022-11-08T23:55:49.910Z,99325.13
2022-11-08T23:58:19.214Z,99331.81
